sensor_id;sensor_type;location;lat;lon;timestamp;P1;durP1;ratioP1;P2;durP2;ratioP2
6638;SDS011;3355;52.882;8.430;2024-03-08T00:00:00;19.43;;;13.00;;
6638;SDS011;3355;52.882;8.430;2024-03-08T07:06:02;18.70;;;14.30;;
6638;SDS011;3355;52.882;8.430;2024-03-08T07:08:32;20.13;;;13.97;;
6638;SDS011;3355;52.882;8.430;2024-03-08T07:10:58;20.37;;;14.67;;
6638;SDS011;3355;52.882;8.430;2024-03-08T07:13:25;22.27;;;14.10;;
6638;SDS011;3355;52.882;8.430;2024-03-08T07:15:52;20.20;;;14.10;;
6638;SDS011;3355;52.882;8.430;2024-03-08T07:18:20;19.37;;;14.17;;
6638;SDS011;3355;52.882;8.430;2024-03-08T07:20:49;22.10;;;16.07;;
6638;SDS011;3355;52.882;8.430;2024-03-08T07:23:17;17.27;;;13.17;;
6638;SDS011;3355;52.882;8.430;2024-03-08T07:26:12;20.53;;;14.60;;
6638;SDS011;3355;52.882;8.430;2024-03-08T07:28:41;19.27;;;14.50;;
6638;SDS011;3355;52.882;8.430;2024-03-08T07:31:07;19.03;;;15.23;;
6638;SDS011;3355;52.882;8.430;2024-03-08T07:33:46;25.77;;;15.87;;
6638;SDS011;3355;52.882;8.430;2024-03-08T07:36:12;21.70;;;14.80;;
6638;SDS011;3355;52.882;8.430;2024-03-08T07:38:41;19.30;;;14.80;;
6638;SDS011;3355;52.882;8.430;2024-03-08T07:41:08;20.17;;;15.03;;
6638;SDS011;3355;52.882;8.430;2024-03-08T07:43:35;20.17;;;14.20;;
6638;SDS011;3355;52.882;8.430;2024-03-08T07:46:09;17.43;;;15.27;;
6638;SDS011;3355;52.882;8.430;2024-03-08T07:48:35;20.43;;;14.13;;
6638;SDS011;3355;52.882;8.430;2024-03-08T07:51:05;18.60;;;14.97;;
6638;SDS011;3355;52.882;8.430;2024-03-08T07:53:34;20.30;;;15.10;;
6638;SDS011;3355;52.882;8.430;2024-03-08T07:56:02;19.87;;;15.67;;
6638;SDS011;3355;52.882;8.430;2024-03-08T07:58:32;21.67;;;14.73;;
6638;SDS011;3355;52.882;8.430;2024-03-08T08:00:59;22.13;;;14.03;;
6638;SDS011;3355;52.882;8.430;2024-03-08T08:03:29;20.00;;;15.00;;
6638;SDS011;3355;52.882;8.430;2024-03-08T08:05:55;19.57;;;14.50;;
6638;SDS011;3355;52.882;8.430;2024-03-08T08:08:23;21.30;;;14.23;;
6638;SDS011;3355;52.882;8.430;2024-03-08T08:10:51;21.33;;;14.27;;
6638;SDS011;3355;52.882;8.430;2024-03-08T08:13:19;18.80;;;14.00;;
6638;SDS011;3355;52.882;8.430;2024-03-08T08:15:45;18.33;;;13.47;;
6638;SDS011;3355;52.882;8.430;2024-03-08T08:18:12;21.23;;;14.67;;
6638;SDS011;3355;52.882;8.430;2024-03-08T08:20:39;19.13;;;14.10;;
6638;SDS011;3355;52.882;8.430;2024-03-08T08:23:05;19.60;;;15.10;;
6638;SDS011;3355;52.882;8.430;2024-03-08T08:25:31;18.80;;;14.33;;
6638;SDS011;3355;52.882;8.430;2024-03-08T08:28:01;19.77;;;14.20;;
6638;SDS011;3355;52.882;8.430;2024-03-08T08:30:30;18.93;;;14.63;;
6638;SDS011;3355;52.882;8.430;2024-03-08T08:32:58;19.80;;;15.20;;
6638;SDS011;3355;52.882;8.430;2024-03-08T08:35:25;21.50;;;14.60;;
6638;SDS011;3355;52.882;8.430;2024-03-08T08:37:53;17.70;;;13.43;;
6638;SDS011;3355;52.882;8.430;2024-03-08T08:40:19;22.57;;;15.40;;
6638;SDS011;3355;52.882;8.430;2024-03-08T08:42:47;22.67;;;13.90;;
6638;SDS011;3355;52.882;8.430;2024-03-08T08:45:14;17.27;;;13.77;;
6638;SDS011;3355;52.882;8.430;2024-03-08T08:47:43;21.77;;;16.50;;
6638;SDS011;3355;52.882;8.430;2024-03-08T08:50:10;24.03;;;15.10;;
6638;SDS011;3355;52.882;8.430;2024-03-08T08:52:37;22.13;;;14.67;;
6638;SDS011;3355;52.882;8.430;2024-03-08T08:55:04;20.80;;;15.20;;
6638;SDS011;3355;52.882;8.430;2024-03-08T08:57:31;21.30;;;16.03;;
6638;SDS011;3355;52.882;8.430;2024-03-08T09:00:01;20.60;;;15.00;;
6638;SDS011;3355;52.882;8.430;2024-03-08T09:02:32;19.37;;;14.83;;
6638;SDS011;3355;52.882;8.430;2024-03-08T09:05:00;21.13;;;15.40;;
6638;SDS011;3355;52.882;8.430;2024-03-08T09:07:27;20.80;;;14.83;;
6638;SDS011;3355;52.882;8.430;2024-03-08T09:09:53;20.77;;;15.07;;
6638;SDS011;3355;52.882;8.430;2024-03-08T09:12:22;17.20;;;14.40;;
6638;SDS011;3355;52.882;8.430;2024-03-08T09:14:48;20.27;;;16.07;;
6638;SDS011;3355;52.882;8.430;2024-03-08T09:17:18;20.27;;;15.90;;
6638;SDS011;3355;52.882;8.430;2024-03-08T09:19:45;19.47;;;13.63;;
6638;SDS011;3355;52.882;8.430;2024-03-08T09:22:15;20.03;;;15.50;;
6638;SDS011;3355;52.882;8.430;2024-03-08T09:24:41;20.77;;;15.13;;
6638;SDS011;3355;52.882;8.430;2024-03-08T09:27:08;19.13;;;14.93;;
6638;SDS011;3355;52.882;8.430;2024-03-08T09:29:34;17.53;;;14.43;;
6638;SDS011;3355;52.882;8.430;2024-03-08T09:32:01;18.40;;;14.90;;
6638;SDS011;3355;52.882;8.430;2024-03-08T09:34:27;19.63;;;14.60;;
6638;SDS011;3355;52.882;8.430;2024-03-08T09:36:55;19.87;;;15.50;;
6638;SDS011;3355;52.882;8.430;2024-03-08T09:39:22;17.60;;;13.37;;
6638;SDS011;3355;52.882;8.430;2024-03-08T09:41:49;19.50;;;14.47;;
6638;SDS011;3355;52.882;8.430;2024-03-08T09:44:15;19.67;;;14.10;;
6638;SDS011;3355;52.882;8.430;2024-03-08T09:46:42;22.97;;;14.80;;
6638;SDS011;3355;52.882;8.430;2024-03-08T09:49:09;18.40;;;13.67;;
6638;SDS011;3355;52.882;8.430;2024-03-08T09:51:36;18.03;;;13.67;;
6638;SDS011;3355;52.882;8.430;2024-03-08T09:54:05;16.37;;;12.70;;
6638;SDS011;3355;52.882;8.430;2024-03-08T09:56:33;17.30;;;13.90;;
6638;SDS011;3355;52.882;8.430;2024-03-08T09:59:00;18.90;;;13.30;;
6638;SDS011;3355;52.882;8.430;2024-03-08T10:01:46;17.67;;;14.00;;
6638;SDS011;3355;52.882;8.430;2024-03-08T10:04:12;16.53;;;12.57;;
6638;SDS011;3355;52.882;8.430;2024-03-08T10:06:40;19.00;;;13.53;;
6638;SDS011;3355;52.882;8.430;2024-03-08T10:09:06;19.97;;;14.27;;
6638;SDS011;3355;52.882;8.430;2024-03-08T10:11:34;15.67;;;12.57;;
6638;SDS011;3355;52.882;8.430;2024-03-08T10:14:01;15.53;;;12.70;;
6638;SDS011;3355;52.882;8.430;2024-03-08T10:16:27;15.83;;;13.97;;
6638;SDS011;3355;52.882;8.430;2024-03-08T10:18:55;17.40;;;14.50;;
6638;SDS011;3355;52.882;8.430;2024-03-08T10:21:32;17.90;;;14.67;;
6638;SDS011;3355;52.882;8.430;2024-03-08T10:23:58;16.40;;;13.43;;
6638;SDS011;3355;52.882;8.430;2024-03-08T10:26:25;17.30;;;13.70;;
6638;SDS011;3355;52.882;8.430;2024-03-08T10:28:53;19.00;;;14.73;;
6638;SDS011;3355;52.882;8.430;2024-03-08T10:31:37;19.23;;;14.13;;
6638;SDS011;3355;52.882;8.430;2024-03-08T10:34:04;18.70;;;14.67;;
6638;SDS011;3355;52.882;8.430;2024-03-08T10:36:30;15.73;;;13.50;;
6638;SDS011;3355;52.882;8.430;2024-03-08T10:38:58;16.23;;;12.80;;
6638;SDS011;3355;52.882;8.430;2024-03-08T10:41:26;16.77;;;13.90;;
6638;SDS011;3355;52.882;8.430;2024-03-08T10:44:01;17.27;;;13.60;;
6638;SDS011;3355;52.882;8.430;2024-03-08T10:46:38;16.63;;;13.70;;
6638;SDS011;3355;52.882;8.430;2024-03-08T10:49:12;20.23;;;16.33;;
6638;SDS011;3355;52.882;8.430;2024-03-08T10:51:42;14.53;;;12.97;;
6638;SDS011;3355;52.882;8.430;2024-03-08T10:54:09;19.97;;;13.07;;
6638;SDS011;3355;52.882;8.430;2024-03-08T10:56:36;17.43;;;14.03;;
6638;SDS011;3355;52.882;8.430;2024-03-08T10:59:06;17.50;;;13.80;;
6638;SDS011;3355;52.882;8.430;2024-03-08T11:01:34;15.30;;;13.70;;
6638;SDS011;3355;52.882;8.430;2024-03-08T11:04:04;16.50;;;13.33;;
6638;SDS011;3355;52.882;8.430;2024-03-08T11:06:41;18.33;;;14.80;;
6638;SDS011;3355;52.882;8.430;2024-03-08T11:09:27;19.83;;;14.97;;
6638;SDS011;3355;52.882;8.430;2024-03-08T11:14:47;18.07;;;13.63;;
6638;SDS011;3355;52.882;8.430;2024-03-08T11:17:15;17.30;;;13.53;;
6638;SDS011;3355;52.882;8.430;2024-03-08T11:19:45;17.70;;;13.93;;
6638;SDS011;3355;52.882;8.430;2024-03-08T11:22:20;15.60;;;13.60;;
6638;SDS011;3355;52.882;8.430;2024-03-08T11:24:48;15.13;;;13.20;;
6638;SDS011;3355;52.882;8.430;2024-03-08T11:27:15;18.27;;;13.87;;
6638;SDS011;3355;52.882;8.430;2024-03-08T11:29:41;15.83;;;13.03;;
6638;SDS011;3355;52.882;8.430;2024-03-08T11:32:09;18.73;;;14.83;;
6638;SDS011;3355;52.882;8.430;2024-03-08T11:34:36;17.30;;;14.00;;
6638;SDS011;3355;52.882;8.430;2024-03-08T11:37:03;18.37;;;14.37;;
6638;SDS011;3355;52.882;8.430;2024-03-08T11:39:30;19.80;;;14.00;;
6638;SDS011;3355;52.882;8.430;2024-03-08T11:41:57;15.60;;;13.43;;
6638;SDS011;3355;52.882;8.430;2024-03-08T11:44:26;17.53;;;13.53;;
6638;SDS011;3355;52.882;8.430;2024-03-08T11:46:52;18.77;;;13.90;;
6638;SDS011;3355;52.882;8.430;2024-03-08T11:49:20;18.17;;;12.93;;
6638;SDS011;3355;52.882;8.430;2024-03-08T11:51:47;16.50;;;13.23;;
6638;SDS011;3355;52.882;8.430;2024-03-08T11:54:17;17.53;;;14.83;;
6638;SDS011;3355;52.882;8.430;2024-03-08T11:56:44;17.50;;;14.10;;
6638;SDS011;3355;52.882;8.430;2024-03-08T11:59:12;20.90;;;14.90;;
6638;SDS011;3355;52.882;8.430;2024-03-08T12:01:39;17.07;;;13.90;;
6638;SDS011;3355;52.882;8.430;2024-03-08T12:04:06;17.03;;;13.70;;
6638;SDS011;3355;52.882;8.430;2024-03-08T12:06:37;18.40;;;13.27;;
6638;SDS011;3355;52.882;8.430;2024-03-08T12:09:07;16.37;;;13.67;;
6638;SDS011;3355;52.882;8.430;2024-03-08T12:11:34;16.13;;;12.30;;
6638;SDS011;3355;52.882;8.430;2024-03-08T12:14:06;15.53;;;13.43;;
6638;SDS011;3355;52.882;8.430;2024-03-08T12:16:32;17.47;;;14.57;;
6638;SDS011;3355;52.882;8.430;2024-03-08T12:18:59;14.87;;;12.63;;
6638;SDS011;3355;52.882;8.430;2024-03-08T12:21:26;16.80;;;14.17;;
6638;SDS011;3355;52.882;8.430;2024-03-08T12:24:05;14.30;;;12.80;;
6638;SDS011;3355;52.882;8.430;2024-03-08T12:26:34;16.37;;;14.57;;
6638;SDS011;3355;52.882;8.430;2024-03-08T12:29:20;16.20;;;12.60;;
6638;SDS011;3355;52.882;8.430;2024-03-08T12:31:47;17.00;;;13.83;;
6638;SDS011;3355;52.882;8.430;2024-03-08T12:34:15;15.77;;;12.60;;
6638;SDS011;3355;52.882;8.430;2024-03-08T12:36:47;15.50;;;12.90;;
6638;SDS011;3355;52.882;8.430;2024-03-08T12:41:58;15.00;;;13.00;;
6638;SDS011;3355;52.882;8.430;2024-03-08T12:44:29;16.27;;;12.43;;
6638;SDS011;3355;52.882;8.430;2024-03-08T12:47:08;17.60;;;13.17;;
6638;SDS011;3355;52.882;8.430;2024-03-08T12:49:34;18.50;;;13.00;;
6638;SDS011;3355;52.882;8.430;2024-03-08T12:52:02;16.53;;;12.37;;
6638;SDS011;3355;52.882;8.430;2024-03-08T12:54:28;15.37;;;13.03;;
6638;SDS011;3355;52.882;8.430;2024-03-08T12:57:00;16.63;;;12.97;;
6638;SDS011;3355;52.882;8.430;2024-03-08T12:59:33;16.13;;;13.43;;
6638;SDS011;3355;52.882;8.430;2024-03-08T13:02:00;16.30;;;13.73;;
6638;SDS011;3355;52.882;8.430;2024-03-08T13:04:26;19.63;;;14.10;;
6638;SDS011;3355;52.882;8.430;2024-03-08T13:06:53;16.40;;;14.07;;
6638;SDS011;3355;52.882;8.430;2024-03-08T13:09:23;19.10;;;13.20;;
6638;SDS011;3355;52.882;8.430;2024-03-08T13:14:47;15.90;;;13.47;;
6638;SDS011;3355;52.882;8.430;2024-03-08T13:17:13;15.90;;;13.23;;
6638;SDS011;3355;52.882;8.430;2024-03-08T13:19:43;18.23;;;12.83;;
6638;SDS011;3355;52.882;8.430;2024-03-08T13:22:09;16.50;;;13.30;;
6638;SDS011;3355;52.882;8.430;2024-03-08T13:24:38;18.10;;;13.77;;
6638;SDS011;3355;52.882;8.430;2024-03-08T13:27:13;16.20;;;13.20;;
6638;SDS011;3355;52.882;8.430;2024-03-08T13:29:48;16.83;;;13.77;;
6638;SDS011;3355;52.882;8.430;2024-03-08T13:32:20;16.23;;;12.43;;
6638;SDS011;3355;52.882;8.430;2024-03-08T13:34:50;15.83;;;12.90;;
6638;SDS011;3355;52.882;8.430;2024-03-08T13:37:17;16.83;;;13.33;;
6638;SDS011;3355;52.882;8.430;2024-03-08T13:39:43;16.30;;;12.50;;
6638;SDS011;3355;52.882;8.430;2024-03-08T13:42:10;15.60;;;13.40;;
6638;SDS011;3355;52.882;8.430;2024-03-08T13:44:38;16.90;;;13.60;;
6638;SDS011;3355;52.882;8.430;2024-03-08T13:47:06;14.87;;;13.27;;
6638;SDS011;3355;52.882;8.430;2024-03-08T13:49:33;16.70;;;13.43;;
6638;SDS011;3355;52.882;8.430;2024-03-08T13:51:59;18.27;;;13.00;;
6638;SDS011;3355;52.882;8.430;2024-03-08T13:54:26;20.70;;;14.10;;
6638;SDS011;3355;52.882;8.430;2024-03-08T13:57:05;15.23;;;12.87;;
6638;SDS011;3355;52.882;8.430;2024-03-08T13:59:34;17.70;;;14.93;;
6638;SDS011;3355;52.882;8.430;2024-03-08T14:02:14;14.80;;;12.37;;
6638;SDS011;3355;52.882;8.430;2024-03-08T14:04:53;18.47;;;14.13;;
6638;SDS011;3355;52.882;8.430;2024-03-08T14:07:26;18.43;;;14.77;;
6638;SDS011;3355;52.882;8.430;2024-03-08T14:09:54;17.30;;;14.53;;
6638;SDS011;3355;52.882;8.430;2024-03-08T14:12:40;17.20;;;13.93;;
6638;SDS011;3355;52.882;8.430;2024-03-08T14:15:13;18.03;;;13.03;;
6638;SDS011;3355;52.882;8.430;2024-03-08T14:17:42;16.77;;;12.90;;
6638;SDS011;3355;52.882;8.430;2024-03-08T14:20:08;16.83;;;12.93;;
6638;SDS011;3355;52.882;8.430;2024-03-08T14:22:36;14.47;;;12.47;;
6638;SDS011;3355;52.882;8.430;2024-03-08T14:25:02;16.63;;;13.37;;
6638;SDS011;3355;52.882;8.430;2024-03-08T14:27:30;17.97;;;13.87;;
6638;SDS011;3355;52.882;8.430;2024-03-08T14:29:58;18.93;;;13.47;;
6638;SDS011;3355;52.882;8.430;2024-03-08T14:32:25;22.70;;;14.73;;
6638;SDS011;3355;52.882;8.430;2024-03-08T14:34:52;18.60;;;15.13;;
6638;SDS011;3355;52.882;8.430;2024-03-08T14:37:20;15.93;;;13.53;;
6638;SDS011;3355;52.882;8.430;2024-03-08T14:39:55;16.70;;;13.20;;
6638;SDS011;3355;52.882;8.430;2024-03-08T14:45:04;18.07;;;12.53;;
6638;SDS011;3355;52.882;8.430;2024-03-08T14:47:41;15.73;;;12.73;;
6638;SDS011;3355;52.882;8.430;2024-03-08T14:50:14;15.80;;;12.60;;
6638;SDS011;3355;52.882;8.430;2024-03-08T14:52:42;14.90;;;12.70;;
6638;SDS011;3355;52.882;8.430;2024-03-08T14:55:08;16.03;;;12.70;;
6638;SDS011;3355;52.882;8.430;2024-03-08T14:57:38;15.33;;;13.50;;
6638;SDS011;3355;52.882;8.430;2024-03-08T15:00:06;16.83;;;12.40;;
6638;SDS011;3355;52.882;8.430;2024-03-08T15:02:40;16.60;;;13.60;;
6638;SDS011;3355;52.882;8.430;2024-03-08T15:05:07;16.10;;;12.30;;
6638;SDS011;3355;52.882;8.430;2024-03-08T15:07:37;16.67;;;13.00;;
6638;SDS011;3355;52.882;8.430;2024-03-08T15:10:26;17.13;;;13.90;;
6638;SDS011;3355;52.882;8.430;2024-03-08T15:13:02;17.03;;;14.00;;
6638;SDS011;3355;52.882;8.430;2024-03-08T15:15:39;15.10;;;12.60;;
6638;SDS011;3355;52.882;8.430;2024-03-08T15:18:07;16.90;;;12.00;;
6638;SDS011;3355;52.882;8.430;2024-03-08T15:20:36;16.63;;;13.10;;
6638;SDS011;3355;52.882;8.430;2024-03-08T15:23:03;15.67;;;11.80;;
6638;SDS011;3355;52.882;8.430;2024-03-08T15:25:30;17.47;;;12.73;;
6638;SDS011;3355;52.882;8.430;2024-03-08T15:27:59;13.83;;;12.30;;
6638;SDS011;3355;52.882;8.430;2024-03-08T15:30:29;15.07;;;12.27;;
6638;SDS011;3355;52.882;8.430;2024-03-08T15:32:57;19.93;;;14.50;;
6638;SDS011;3355;52.882;8.430;2024-03-08T15:35:26;15.77;;;13.10;;
6638;SDS011;3355;52.882;8.430;2024-03-08T15:37:52;17.60;;;13.10;;
6638;SDS011;3355;52.882;8.430;2024-03-08T15:40:21;17.73;;;13.03;;
6638;SDS011;3355;52.882;8.430;2024-03-08T15:42:48;18.37;;;13.53;;
6638;SDS011;3355;52.882;8.430;2024-03-08T15:45:15;16.90;;;13.50;;
6638;SDS011;3355;52.882;8.430;2024-03-08T15:47:42;16.73;;;13.20;;
6638;SDS011;3355;52.882;8.430;2024-03-08T15:50:09;15.90;;;11.17;;
6638;SDS011;3355;52.882;8.430;2024-03-08T15:52:37;14.60;;;12.03;;
6638;SDS011;3355;52.882;8.430;2024-03-08T15:55:05;16.10;;;11.63;;
6638;SDS011;3355;52.882;8.430;2024-03-08T15:57:33;15.50;;;12.20;;
6638;SDS011;3355;52.882;8.430;2024-03-08T16:00:00;16.53;;;12.23;;
6638;SDS011;3355;52.882;8.430;2024-03-08T16:02:43;13.60;;;10.87;;
6638;SDS011;3355;52.882;8.430;2024-03-08T16:05:10;17.07;;;11.20;;
6638;SDS011;3355;52.882;8.430;2024-03-08T16:07:37;13.27;;;10.90;;
6638;SDS011;3355;52.882;8.430;2024-03-08T16:10:04;14.30;;;11.43;;
6638;SDS011;3355;52.882;8.430;2024-03-08T16:12:42;14.10;;;11.43;;
6638;SDS011;3355;52.882;8.430;2024-03-08T16:15:09;16.27;;;11.90;;
6638;SDS011;3355;52.882;8.430;2024-03-08T16:17:35;13.10;;;10.43;;
6638;SDS011;3355;52.882;8.430;2024-03-08T16:20:04;14.13;;;11.47;;
6638;SDS011;3355;52.882;8.430;2024-03-08T16:22:36;17.00;;;12.43;;
6638;SDS011;3355;52.882;8.430;2024-03-08T16:25:02;15.50;;;11.17;;
6638;SDS011;3355;52.882;8.430;2024-03-08T16:27:38;13.67;;;10.90;;
6638;SDS011;3355;52.882;8.430;2024-03-08T16:30:05;14.60;;;11.90;;
6638;SDS011;3355;52.882;8.430;2024-03-08T16:32:36;15.37;;;12.37;;
6638;SDS011;3355;52.882;8.430;2024-03-08T16:35:03;14.20;;;11.40;;
6638;SDS011;3355;52.882;8.430;2024-03-08T16:37:38;12.07;;;9.67;;
6638;SDS011;3355;52.882;8.430;2024-03-08T16:40:06;17.57;;;12.03;;
6638;SDS011;3355;52.882;8.430;2024-03-08T16:42:41;13.77;;;11.17;;
6638;SDS011;3355;52.882;8.430;2024-03-08T16:45:12;13.00;;;10.43;;
6638;SDS011;3355;52.882;8.430;2024-03-08T16:47:39;12.70;;;10.70;;
6638;SDS011;3355;52.882;8.430;2024-03-08T16:50:07;16.20;;;12.23;;
6638;SDS011;3355;52.882;8.430;2024-03-08T16:52:34;15.37;;;11.70;;
6638;SDS011;3355;52.882;8.430;2024-03-08T16:55:01;13.93;;;11.60;;
6638;SDS011;3355;52.882;8.430;2024-03-08T16:57:27;14.80;;;11.47;;
6638;SDS011;3355;52.882;8.430;2024-03-08T16:59:58;12.93;;;9.93;;
6638;SDS011;3355;52.882;8.430;2024-03-08T17:02:28;13.13;;;10.17;;
6638;SDS011;3355;52.882;8.430;2024-03-08T17:04:58;15.57;;;10.73;;
6638;SDS011;3355;52.882;8.430;2024-03-08T17:07:24;13.97;;;10.33;;
6638;SDS011;3355;52.882;8.430;2024-03-08T17:09:59;18.10;;;13.20;;
6638;SDS011;3355;52.882;8.430;2024-03-08T17:12:26;15.43;;;12.10;;
6638;SDS011;3355;52.882;8.430;2024-03-08T17:14:52;14.83;;;11.53;;
6638;SDS011;3355;52.882;8.430;2024-03-08T17:17:20;18.33;;;12.60;;
6638;SDS011;3355;52.882;8.430;2024-03-08T17:19:46;15.20;;;12.23;;
6638;SDS011;3355;52.882;8.430;2024-03-08T17:22:16;16.13;;;11.90;;
6638;SDS011;3355;52.882;8.430;2024-03-08T17:24:43;16.07;;;12.20;;
6638;SDS011;3355;52.882;8.430;2024-03-08T17:27:09;14.90;;;11.73;;
6638;SDS011;3355;52.882;8.430;2024-03-08T17:29:39;15.47;;;12.00;;
6638;SDS011;3355;52.882;8.430;2024-03-08T17:32:06;16.57;;;13.27;;
6638;SDS011;3355;52.882;8.430;2024-03-08T17:34:34;20.33;;;12.70;;
6638;SDS011;3355;52.882;8.430;2024-03-08T17:37:02;17.50;;;12.50;;
6638;SDS011;3355;52.882;8.430;2024-03-08T17:39:28;16.47;;;11.97;;
6638;SDS011;3355;52.882;8.430;2024-03-08T17:41:55;16.07;;;12.27;;
6638;SDS011;3355;52.882;8.430;2024-03-08T17:44:21;15.00;;;12.33;;
6638;SDS011;3355;52.882;8.430;2024-03-08T17:46:48;16.10;;;12.63;;
6638;SDS011;3355;52.882;8.430;2024-03-08T17:49:14;19.87;;;12.67;;
6638;SDS011;3355;52.882;8.430;2024-03-08T17:51:42;16.40;;;12.77;;
6638;SDS011;3355;52.882;8.430;2024-03-08T17:54:10;18.70;;;12.90;;
6638;SDS011;3355;52.882;8.430;2024-03-08T17:56:39;16.23;;;12.87;;
6638;SDS011;3355;52.882;8.430;2024-03-08T17:59:05;16.90;;;13.03;;
6638;SDS011;3355;52.882;8.430;2024-03-08T18:01:33;16.93;;;12.40;;
6638;SDS011;3355;52.882;8.430;2024-03-08T18:04:01;14.63;;;11.50;;
6638;SDS011;3355;52.882;8.430;2024-03-08T18:06:36;16.83;;;13.50;;
6638;SDS011;3355;52.882;8.430;2024-03-08T18:12:02;14.17;;;10.80;;
6638;SDS011;3355;52.882;8.430;2024-03-08T18:14:29;14.93;;;12.70;;
6638;SDS011;3355;52.882;8.430;2024-03-08T18:16:56;16.87;;;13.23;;
6638;SDS011;3355;52.882;8.430;2024-03-08T18:19:23;17.47;;;12.33;;
6638;SDS011;3355;52.882;8.430;2024-03-08T18:21:49;17.33;;;13.27;;
6638;SDS011;3355;52.882;8.430;2024-03-08T18:24:16;16.57;;;12.20;;
6638;SDS011;3355;52.882;8.430;2024-03-08T18:27:00;17.73;;;11.30;;
6638;SDS011;3355;52.882;8.430;2024-03-08T18:29:28;18.00;;;11.57;;
6638;SDS011;3355;52.882;8.430;2024-03-08T18:31:54;14.87;;;11.77;;
6638;SDS011;3355;52.882;8.430;2024-03-08T18:34:21;15.70;;;11.67;;
6638;SDS011;3355;52.882;8.430;2024-03-08T18:36:48;16.67;;;12.30;;
6638;SDS011;3355;52.882;8.430;2024-03-08T18:39:15;15.53;;;11.90;;
6638;SDS011;3355;52.882;8.430;2024-03-08T18:41:43;18.43;;;11.37;;
6638;SDS011;3355;52.882;8.430;2024-03-08T18:44:14;18.70;;;11.80;;
6638;SDS011;3355;52.882;8.430;2024-03-08T18:46:42;14.90;;;11.23;;
6638;SDS011;3355;52.882;8.430;2024-03-08T18:49:08;18.10;;;12.20;;
6638;SDS011;3355;52.882;8.430;2024-03-08T18:51:39;13.50;;;11.17;;
6638;SDS011;3355;52.882;8.430;2024-03-08T18:54:05;19.27;;;13.27;;
6638;SDS011;3355;52.882;8.430;2024-03-08T18:56:31;16.13;;;11.90;;
6638;SDS011;3355;52.882;8.430;2024-03-08T18:58:58;18.87;;;12.57;;
6638;SDS011;3355;52.882;8.430;2024-03-08T19:01:24;16.30;;;12.33;;
6638;SDS011;3355;52.882;8.430;2024-03-08T19:03:56;18.87;;;12.07;;
6638;SDS011;3355;52.882;8.430;2024-03-08T19:06:23;19.90;;;12.90;;
6638;SDS011;3355;52.882;8.430;2024-03-08T19:08:55;16.87;;;11.53;;
6638;SDS011;3355;52.882;8.430;2024-03-08T19:11:23;15.83;;;10.70;;
6638;SDS011;3355;52.882;8.430;2024-03-08T19:13:51;16.27;;;11.37;;
6638;SDS011;3355;52.882;8.430;2024-03-08T19:16:17;14.47;;;10.70;;
6638;SDS011;3355;52.882;8.430;2024-03-08T19:18:45;16.13;;;12.37;;
6638;SDS011;3355;52.882;8.430;2024-03-08T19:21:15;16.10;;;11.87;;
6638;SDS011;3355;52.882;8.430;2024-03-08T19:23:43;19.97;;;12.87;;
6638;SDS011;3355;52.882;8.430;2024-03-08T19:26:09;18.57;;;12.47;;
6638;SDS011;3355;52.882;8.430;2024-03-08T19:28:37;15.77;;;11.93;;
6638;SDS011;3355;52.882;8.430;2024-03-08T19:31:04;17.40;;;11.87;;
6638;SDS011;3355;52.882;8.430;2024-03-08T19:33:31;17.80;;;12.37;;
6638;SDS011;3355;52.882;8.430;2024-03-08T19:35:57;18.53;;;11.87;;
6638;SDS011;3355;52.882;8.430;2024-03-08T19:38:26;14.77;;;12.30;;
6638;SDS011;3355;52.882;8.430;2024-03-08T19:40:56;16.10;;;11.97;;
6638;SDS011;3355;52.882;8.430;2024-03-08T19:43:23;15.07;;;10.87;;
6638;SDS011;3355;52.882;8.430;2024-03-08T19:48:36;18.00;;;12.70;;
6638;SDS011;3355;52.882;8.430;2024-03-08T19:51:03;17.40;;;11.67;;
6638;SDS011;3355;52.882;8.430;2024-03-08T19:53:31;19.67;;;12.63;;
6638;SDS011;3355;52.882;8.430;2024-03-08T19:55:58;15.20;;;11.50;;
6638;SDS011;3355;52.882;8.430;2024-03-08T19:58:26;14.00;;;11.03;;
6638;SDS011;3355;52.882;8.430;2024-03-08T20:00:56;16.87;;;12.20;;
6638;SDS011;3355;52.882;8.430;2024-03-08T20:03:24;21.03;;;12.73;;
6638;SDS011;3355;52.882;8.430;2024-03-08T20:05:54;17.90;;;11.80;;
6638;SDS011;3355;52.882;8.430;2024-03-08T20:08:21;16.33;;;11.30;;
6638;SDS011;3355;52.882;8.430;2024-03-08T20:10:50;17.90;;;12.27;;
6638;SDS011;3355;52.882;8.430;2024-03-08T20:13:17;17.90;;;11.50;;
6638;SDS011;3355;52.882;8.430;2024-03-08T20:15:44;19.73;;;13.33;;
6638;SDS011;3355;52.882;8.430;2024-03-08T20:18:17;16.30;;;11.40;;
6638;SDS011;3355;52.882;8.430;2024-03-08T20:20:44;15.00;;;10.60;;
6638;SDS011;3355;52.882;8.430;2024-03-08T20:23:13;18.13;;;11.10;;
6638;SDS011;3355;52.882;8.430;2024-03-08T20:25:39;19.47;;;12.47;;
6638;SDS011;3355;52.882;8.430;2024-03-08T20:28:11;17.63;;;11.57;;
6638;SDS011;3355;52.882;8.430;2024-03-08T20:30:37;15.63;;;10.93;;
6638;SDS011;3355;52.882;8.430;2024-03-08T20:33:06;16.10;;;11.27;;
6638;SDS011;3355;52.882;8.430;2024-03-08T20:35:34;18.60;;;11.83;;
6638;SDS011;3355;52.882;8.430;2024-03-08T20:38:01;16.00;;;10.70;;
6638;SDS011;3355;52.882;8.430;2024-03-08T20:40:31;16.93;;;11.87;;
6638;SDS011;3355;52.882;8.430;2024-03-08T20:43:02;17.97;;;12.60;;
6638;SDS011;3355;52.882;8.430;2024-03-08T20:45:30;13.73;;;9.90;;
6638;SDS011;3355;52.882;8.430;2024-03-08T20:47:56;14.33;;;10.50;;
6638;SDS011;3355;52.882;8.430;2024-03-08T20:50:23;15.37;;;11.30;;
6638;SDS011;3355;52.882;8.430;2024-03-08T20:52:49;14.70;;;10.40;;
6638;SDS011;3355;52.882;8.430;2024-03-08T20:55:16;15.63;;;10.70;;
6638;SDS011;3355;52.882;8.430;2024-03-08T20:57:47;15.57;;;10.27;;
6638;SDS011;3355;52.882;8.430;2024-03-08T21:00:15;15.80;;;11.77;;
6638;SDS011;3355;52.882;8.430;2024-03-08T21:02:46;15.80;;;10.97;;
6638;SDS011;3355;52.882;8.430;2024-03-08T21:05:12;15.70;;;10.50;;
6638;SDS011;3355;52.882;8.430;2024-03-08T21:07:41;14.97;;;11.30;;
6638;SDS011;3355;52.882;8.430;2024-03-08T21:10:07;16.03;;;11.30;;
6638;SDS011;3355;52.882;8.430;2024-03-08T21:12:35;14.80;;;10.03;;
6638;SDS011;3355;52.882;8.430;2024-03-08T21:15:02;14.87;;;10.40;;
6638;SDS011;3355;52.882;8.430;2024-03-08T21:17:29;17.57;;;11.83;;
6638;SDS011;3355;52.882;8.430;2024-03-08T21:19:57;18.83;;;11.00;;
6638;SDS011;3355;52.882;8.430;2024-03-08T21:22:23;13.63;;;9.87;;
6638;SDS011;3355;52.882;8.430;2024-03-08T21:24:49;17.10;;;9.80;;
6638;SDS011;3355;52.882;8.430;2024-03-08T21:27:17;19.87;;;11.87;;
6638;SDS011;3355;52.882;8.430;2024-03-08T21:29:43;14.30;;;10.83;;
6638;SDS011;3355;52.882;8.430;2024-03-08T21:32:10;14.17;;;9.83;;
6638;SDS011;3355;52.882;8.430;2024-03-08T21:34:38;16.00;;;10.53;;
6638;SDS011;3355;52.882;8.430;2024-03-08T21:37:06;15.50;;;11.87;;
6638;SDS011;3355;52.882;8.430;2024-03-08T21:39:32;14.43;;;9.80;;
6638;SDS011;3355;52.882;8.430;2024-03-08T21:41:59;13.80;;;9.80;;
6638;SDS011;3355;52.882;8.430;2024-03-08T21:44:26;15.13;;;9.77;;
6638;SDS011;3355;52.882;8.430;2024-03-08T21:46:54;13.70;;;9.70;;
6638;SDS011;3355;52.882;8.430;2024-03-08T21:49:20;16.20;;;11.20;;
6638;SDS011;3355;52.882;8.430;2024-03-08T21:51:46;13.13;;;9.77;;
6638;SDS011;3355;52.882;8.430;2024-03-08T21:54:14;15.40;;;11.10;;
6638;SDS011;3355;52.882;8.430;2024-03-08T21:56:42;19.70;;;11.20;;
6638;SDS011;3355;52.882;8.430;2024-03-08T21:59:09;15.13;;;10.47;;
6638;SDS011;3355;52.882;8.430;2024-03-08T22:01:35;16.40;;;9.80;;
6638;SDS011;3355;52.882;8.430;2024-03-08T22:04:02;15.37;;;10.13;;
6638;SDS011;3355;52.882;8.430;2024-03-08T22:06:29;12.90;;;9.93;;
6638;SDS011;3355;52.882;8.430;2024-03-08T22:08:55;15.77;;;10.33;;
6638;SDS011;3355;52.882;8.430;2024-03-08T22:11:25;15.43;;;10.40;;
6638;SDS011;3355;52.882;8.430;2024-03-08T22:13:51;14.50;;;10.70;;
6638;SDS011;3355;52.882;8.430;2024-03-08T22:16:18;16.20;;;12.03;;